createdAt,value
2022-08-20T00:00:42.487Z,1.04
2022-08-20T00:01:42.686Z,1.04
2022-08-20T00:02:42.741Z,1.04
2022-08-20T00:03:44.653Z,1.04
2022-08-20T00:04:42.948Z,1.04
2022-08-20T00:05:43.094Z,1.04
2022-08-20T00:06:43.247Z,1.04
2022-08-20T00:07:43.351Z,1.04
2022-08-20T00:08:43.451Z,1.04
2022-08-20T00:09:43.555Z,1.04
2022-08-20T00:10:43.705Z,1.04
2022-08-20T00:11:43.865Z,1.04
2022-08-20T00:12:43.959Z,1.04
2022-08-20T00:13:44.061Z,1.04
2022-08-20T00:14:44.161Z,1.04
2022-08-20T00:15:44.263Z,1.04
2022-08-20T00:16:44.367Z,1.04
2022-08-20T00:17:44.465Z,1.04
2022-08-20T00:18:44.623Z,1.04
2022-08-20T00:19:44.725Z,1.04
2022-08-20T00:20:44.824Z,1.04
2022-08-20T00:21:44.983Z,1.04
2022-08-20T00:22:45.079Z,1.04
2022-08-20T00:23:45.178Z,1.04
2022-08-20T00:24:45.282Z,1.04
2022-08-20T00:25:45.380Z,1.04
2022-08-20T00:26:46.773Z,1.04
2022-08-20T00:27:45.685Z,1.04
2022-08-20T00:28:45.790Z,1.04
2022-08-20T00:29:45.891Z,1.04
2022-08-20T00:30:45.993Z,1.04
2022-08-20T00:31:46.145Z,1.04
2022-08-20T00:32:46.248Z,1.04
2022-08-20T00:33:46.403Z,1.04
2022-08-20T00:34:46.506Z,1.04
2022-08-20T00:35:46.654Z,1.04
2022-08-20T00:36:46.756Z,1.04
2022-08-20T00:37:46.861Z,1.04
2022-08-20T00:38:46.963Z,1.04
2022-08-20T00:39:47.096Z,1.04
2022-08-20T00:40:47.218Z,1.04
2022-08-20T00:41:47.367Z,1.04
2022-08-20T00:42:47.469Z,1.04
2022-08-20T00:43:47.572Z,1.04
2022-08-20T00:44:47.669Z,1.04
2022-08-20T00:45:47.773Z,1.04
2022-08-20T00:46:47.924Z,1.04
2022-08-20T00:47:51.235Z,1.04
2022-08-20T00:48:48.232Z,1.04
2022-08-20T00:49:48.380Z,1.04
2022-08-20T00:50:48.483Z,1.04
2022-08-20T00:51:48.634Z,1.04
2022-08-20T00:52:49.750Z,1.04
2022-08-20T00:53:48.889Z,1.04
2022-08-20T00:54:48.991Z,1.04
2022-08-20T00:55:49.139Z,1.04
2022-08-20T00:56:49.293Z,1.04
2022-08-20T00:57:59.077Z,1.04
2022-08-20T00:58:49.502Z,1.04
2022-08-20T00:59:49.603Z,1.04
2022-08-20T01:00:49.766Z,1.04
2022-08-20T01:01:55.370Z,1.04
2022-08-20T01:02:50.013Z,1.04
2022-08-20T01:03:50.117Z,1.04
2022-08-20T01:04:50.216Z,1.04
2022-08-20T01:05:50.315Z,1.04
2022-08-20T01:06:50.413Z,1.04
2022-08-20T01:07:50.564Z,1.04
2022-08-20T01:08:50.718Z,1.04
2022-08-20T01:09:58.715Z,1.04
2022-08-20T01:10:51.024Z,1.04
2022-08-20T01:11:51.124Z,1.04
2022-08-20T01:12:53.217Z,1.04
2022-08-20T01:13:51.373Z,1.04
2022-08-20T01:14:51.527Z,1.04
2022-08-20T01:15:51.632Z,1.04
2022-08-20T01:16:51.733Z,1.04
2022-08-20T01:17:51.944Z,1.04
2022-08-20T01:18:51.989Z,1.04
2022-08-20T01:19:52.136Z,1.04
2022-08-20T01:20:52.238Z,1.04
2022-08-20T01:21:52.393Z,1.04
2022-08-20T01:22:52.494Z,1.04
2022-08-20T01:23:52.598Z,1.04
2022-08-20T01:24:52.750Z,1.04
2022-08-20T01:25:52.900Z,1.04
2022-08-20T01:26:53.051Z,1.04
2022-08-20T01:27:53.252Z,1.04
2022-08-20T01:28:53.307Z,1.04
2022-08-20T01:29:53.462Z,1.04
2022-08-20T01:30:53.612Z,1.04
2022-08-20T01:31:53.760Z,1.04
2022-08-20T01:32:53.869Z,1.04
2022-08-20T01:33:53.970Z,1.04
2022-08-20T01:34:54.066Z,1.04
2022-08-20T01:35:54.178Z,1.04
2022-08-20T01:36:54.316Z,1.04
2022-08-20T01:37:54.559Z,1.04
2022-08-20T01:38:54.914Z,1.04
2022-08-20T01:39:54.741Z,1.04
2022-08-20T01:40:54.781Z,1.04
2022-08-20T01:41:54.933Z,1.04
2022-08-20T01:42:58.935Z,1.04
2022-08-20T01:43:55.191Z,1.04
2022-08-20T01:44:55.286Z,1.04
2022-08-20T01:45:55.389Z,1.04
2022-08-20T01:46:55.493Z,1.04
2022-08-20T01:47:55.698Z,1.04
2022-08-20T01:48:55.755Z,1.04
2022-08-20T01:49:55.899Z,1.04
2022-08-20T01:50:56.046Z,1.04
2022-08-20T01:51:56.152Z,1.04
2022-08-20T01:52:56.251Z,1.04
2022-08-20T01:53:56.350Z,1.04
2022-08-20T01:54:56.453Z,1.04
2022-08-20T01:55:56.605Z,1.04
2022-08-20T01:56:56.711Z,1.04
2022-08-20T01:57:56.955Z,1.04
2022-08-20T01:58:58.943Z,1.04
2022-08-20T01:59:57.020Z,1.04
2022-08-20T02:00:57.168Z,1.04
2022-08-20T02:01:57.315Z,1.04
2022-08-20T02:02:57.379Z,1.04
2022-08-20T02:03:57.528Z,1.04
2022-08-20T02:04:57.674Z,1.04
2022-08-20T02:05:57.780Z,1.04
2022-08-20T02:06:58.074Z,1.04
2022-08-20T02:07:57.983Z,1.04
2022-08-20T02:08:58.136Z,1.04
2022-08-20T02:09:58.238Z,1.04
2022-08-20T02:10:58.349Z,1.04
2022-08-20T02:11:58.489Z,1.04
2022-08-20T02:12:58.639Z,1.04
2022-08-20T02:13:58.751Z,1.04
2022-08-20T02:14:58.892Z,1.04
2022-08-20T02:15:58.995Z,1.04
2022-08-20T02:16:59.155Z,1.04
2022-08-20T02:17:59.251Z,1.04
2022-08-20T02:18:59.405Z,1.04
2022-08-20T02:19:59.506Z,1.04
2022-08-20T02:20:59.605Z,1.04
2022-08-20T02:21:59.758Z,1.04
2022-08-20T02:22:59.912Z,1.04
2022-08-20T02:24:00.016Z,1.04
2022-08-20T02:25:00.129Z,1.04
2022-08-20T02:26:00.268Z,1.04
2022-08-20T02:27:00.371Z,1.04
2022-08-20T02:28:00.524Z,1.04
2022-08-20T02:29:01.090Z,1.04
2022-08-20T02:30:00.776Z,1.04
2022-08-20T02:31:00.932Z,1.04
2022-08-20T02:32:23.890Z,1.04
2022-08-20T02:33:01.180Z,1.04
2022-08-20T02:34:14.661Z,1.04
2022-08-20T02:35:01.385Z,1.04
2022-08-20T02:36:01.535Z,1.04
2022-08-20T02:37:01.644Z,1.04
2022-08-20T02:38:01.740Z,1.04
2022-08-20T02:39:01.842Z,1.04
2022-08-20T02:40:01.974Z,1.04
2022-08-20T02:41:02.104Z,1.04
2022-08-20T02:42:02.310Z,1.04
2022-08-20T02:43:02.359Z,1.04
2022-08-20T02:44:02.453Z,1.04
2022-08-20T02:45:02.555Z,1.04
2022-08-20T02:46:02.655Z,1.04
2022-08-20T02:47:02.755Z,1.04
2022-08-20T02:48:02.857Z,1.04
2022-08-20T02:49:03.011Z,1.04
2022-08-20T02:50:03.165Z,1.04
2022-08-20T02:51:03.326Z,1.04
2022-08-20T02:52:03.463Z,1.04
2022-08-20T02:53:03.569Z,1.04
2022-08-20T02:54:03.668Z,1.04
2022-08-20T02:55:03.824Z,1.04
2022-08-20T02:56:03.923Z,1.04
2022-08-20T02:57:04.075Z,1.04
2022-08-20T02:58:04.231Z,1.04
2022-08-20T02:59:04.327Z,1.04
2022-08-20T03:00:04.485Z,1.04
2022-08-20T03:01:04.659Z,1.04
2022-08-20T03:02:04.734Z,1.04
2022-08-20T03:03:04.888Z,1.04
2022-08-20T03:04:04.989Z,1.04
2022-08-20T03:05:05.139Z,1.04
2022-08-20T03:06:05.300Z,1.04
2022-08-20T03:07:05.396Z,1.04
2022-08-20T03:08:05.499Z,1.04
2022-08-20T03:09:05.653Z,1.04
2022-08-20T03:10:05.804Z,1.04
2022-08-20T03:11:05.903Z,1.04
2022-08-20T03:12:06.007Z,1.04
2022-08-20T03:13:06.107Z,1.04
2022-08-20T03:14:06.209Z,1.04
2022-08-20T03:15:06.310Z,1.04
2022-08-20T03:16:06.462Z,1.04
2022-08-20T03:17:06.614Z,1.04
2022-08-20T03:18:06.714Z,1.04
2022-08-20T03:19:06.872Z,1.04
2022-08-20T03:20:06.976Z,1.04
2022-08-20T03:21:07.127Z,1.04
2022-08-20T03:22:07.229Z,1.04
2022-08-20T03:23:07.330Z,1.04
2022-08-20T03:24:07.432Z,1.04
2022-08-20T03:25:07.584Z,1.04
2022-08-20T03:26:07.686Z,1.04
2022-08-20T03:27:07.787Z,1.04
2022-08-20T03:28:07.937Z,1.04
2022-08-20T03:29:08.038Z,1.04
2022-08-20T03:30:08.193Z,1.04
2022-08-20T03:31:08.343Z,1.04
2022-08-20T03:32:08.442Z,1.04
2022-08-20T03:33:08.596Z,1.04
2022-08-20T03:34:08.748Z,1.04
2022-08-20T03:35:08.852Z,1.04
2022-08-20T03:36:09.001Z,1.04
2022-08-20T03:37:09.149Z,1.04
2022-08-20T03:38:09.257Z,2
2022-08-20T03:39:09.358Z,2
2022-08-20T03:40:09.508Z,2
2022-08-20T03:41:09.560Z,2
2022-08-20T03:42:09.720Z,2
2022-08-20T03:43:09.817Z,3.04
2022-08-20T03:44:09.924Z,3.04
2022-08-20T03:45:10.020Z,3.04
2022-08-20T03:46:21.933Z,4
2022-08-20T03:47:10.330Z,5.04
2022-08-20T03:48:10.481Z,5.04
2022-08-20T03:49:10.638Z,5.04
2022-08-20T03:50:10.781Z,6
2022-08-20T03:51:10.883Z,8
2022-08-20T03:52:10.990Z,10
2022-08-20T03:53:13.067Z,11.04
2022-08-20T03:54:11.232Z,14
2022-08-20T03:55:11.393Z,17.04
2022-08-20T03:56:11.503Z,16
2022-08-20T03:57:12.398Z,19.04
2022-08-20T03:58:11.754Z,18
2022-08-20T03:59:11.852Z,22
2022-08-20T04:00:11.949Z,25.04
2022-08-20T04:01:12.603Z,29.04
2022-08-20T04:02:12.299Z,30
2022-08-20T04:03:12.306Z,30
2022-08-20T04:04:12.856Z,41.04
2022-08-20T04:05:12.562Z,41.04
2022-08-20T04:06:12.665Z,48
2022-08-20T04:07:12.815Z,48
2022-08-20T04:08:12.916Z,56
2022-08-20T04:09:13.020Z,68
2022-08-20T04:10:13.122Z,77.04
2022-08-20T04:11:13.220Z,90
2022-08-20T04:12:13.372Z,101.04
2022-08-20T04:13:13.525Z,93.04
2022-08-20T04:14:17.352Z,105.04
2022-08-20T04:15:13.781Z,127.04
2022-08-20T04:16:14.846Z,140
2022-08-20T04:17:13.980Z,163.04
2022-08-20T04:18:14.130Z,160
2022-08-20T04:19:14.284Z,154
2022-08-20T04:20:14.436Z,157.04
2022-08-20T04:21:14.536Z,185.12
2022-08-20T04:22:14.648Z,179.04
2022-08-20T04:23:14.796Z,173.12
2022-08-20T04:24:22.098Z,214.08
2022-08-20T04:25:15.854Z,192
2022-08-20T04:26:15.146Z,219.04
2022-08-20T04:27:15.252Z,265.12
2022-08-20T04:28:15.375Z,252
2022-08-20T04:29:15.557Z,220
2022-08-20T04:30:15.659Z,220
2022-08-20T04:31:15.760Z,239.04
2022-08-20T04:32:16.990Z,256
2022-08-20T04:33:16.012Z,275.04
2022-08-20T04:34:16.164Z,288
2022-08-20T04:35:16.313Z,304
2022-08-20T04:36:16.418Z,318.08
2022-08-20T04:37:17.393Z,330.24
2022-08-20T04:38:16.625Z,341.12
2022-08-20T04:39:16.729Z,352
2022-08-20T04:40:16.824Z,365.12
2022-08-20T04:41:21.218Z,370.24
2022-08-20T04:42:17.085Z,377.28
2022-08-20T04:43:17.231Z,386.24
2022-08-20T04:44:17.383Z,390.08
2022-08-20T04:45:17.485Z,396.16
2022-08-20T04:46:17.584Z,406.08
2022-08-20T04:47:17.687Z,423.04
2022-08-20T04:48:17.792Z,430.08
2022-08-20T04:49:17.899Z,434.24
2022-08-20T04:50:18.047Z,431.04
2022-08-20T04:51:18.326Z,416
2022-08-20T04:52:18.309Z,401.28
2022-08-20T04:53:20.753Z,407.04
2022-08-20T04:54:18.600Z,427.2
2022-08-20T04:55:18.706Z,453.12
2022-08-20T04:56:18.816Z,476.16
2022-08-20T04:57:18.925Z,499.2
2022-08-20T04:58:19.020Z,533.12
2022-08-20T04:59:19.127Z,572.16
2022-08-20T05:00:19.228Z,616
2022-08-20T05:01:19.401Z,651.2
2022-08-20T05:02:19.480Z,702.08
2022-08-20T05:03:19.620Z,760.32
2022-08-20T05:04:19.723Z,802.56
2022-08-20T05:05:19.877Z,835.2
2022-08-20T05:06:19.975Z,858.24
2022-08-20T05:07:20.133Z,865.28
2022-08-20T05:08:20.401Z,886.4
2022-08-20T05:09:20.386Z,932.48
2022-08-20T05:10:20.494Z,988.16
2022-08-20T05:11:33.361Z,1041.28
2022-08-20T05:12:20.739Z,1082.24
2022-08-20T05:13:24.115Z,1116.16
2022-08-20T05:14:20.946Z,1149.44
2022-08-20T05:15:21.041Z,1182.08
2022-08-20T05:16:21.141Z,1218.56
2022-08-20T05:17:21.247Z,1251.2
2022-08-20T05:18:21.348Z,1275.52
2022-08-20T05:19:21.447Z,1282.56
2022-08-20T05:20:21.601Z,1418.24
2022-08-20T05:21:21.711Z,1546.24
2022-08-20T05:22:21.856Z,1639.68
2022-08-20T05:23:21.961Z,1733.12
2022-08-20T05:24:22.056Z,1822.72
2022-08-20T05:25:22.215Z,1908.48
2022-08-20T05:26:22.364Z,1995.52
2022-08-20T05:27:24.470Z,2113.28
2022-08-20T05:28:22.623Z,2247.68
2022-08-20T05:29:22.724Z,2346.24
2022-08-20T05:30:23.075Z,2336
2022-08-20T05:31:22.977Z,2234.88
2022-08-20T05:32:23.078Z,2231.04
2022-08-20T05:33:23.225Z,2275.84
2022-08-20T05:34:23.374Z,2204.16
2022-08-20T05:35:23.480Z,2197.76
2022-08-20T05:36:23.583Z,2195.2
2022-08-20T05:37:23.685Z,2132.48
2022-08-20T05:38:23.837Z,1747.2
2022-08-20T05:39:23.941Z,1702.4
2022-08-20T05:40:24.080Z,1811.2
2022-08-20T05:41:27.894Z,1952
2022-08-20T05:42:24.247Z,1991.68
2022-08-20T05:43:24.345Z,1994.24
2022-08-20T05:44:24.464Z,1736.96
2022-08-20T05:45:24.602Z,1562.88
2022-08-20T05:46:24.756Z,1404.16
2022-08-20T05:47:24.856Z,1057.28
2022-08-20T05:48:24.955Z,1147.52
2022-08-20T05:49:25.063Z,1187.2
2022-08-20T05:50:25.162Z,1511.68
2022-08-20T05:51:25.312Z,2048
2022-08-20T05:52:25.465Z,2159.36
2022-08-20T05:53:25.620Z,2385.92
2022-08-20T05:54:25.779Z,2480.64
2022-08-20T05:55:25.871Z,2504.96
2022-08-20T05:56:26.661Z,2434.56
2022-08-20T05:57:26.070Z,2464
2022-08-20T05:58:26.178Z,2448.64
2022-08-20T05:59:26.285Z,2461.44
2022-08-20T06:00:26.379Z,2501.12
2022-08-20T06:01:26.550Z,2531.84
2022-08-20T06:02:26.630Z,2510.08
2022-08-20T06:03:26.734Z,2557.44
2022-08-20T06:04:26.872Z,2613.76
2022-08-20T06:05:26.939Z,2688
2022-08-20T06:06:44.444Z,2721.28
2022-08-20T06:07:27.197Z,2657.28
2022-08-20T06:08:27.299Z,2393.6
2022-08-20T06:09:28.248Z,2296.32
2022-08-20T06:10:27.513Z,2379.52
2022-08-20T06:11:27.654Z,2698.24
2022-08-20T06:12:27.754Z,2936.32
2022-08-20T06:13:27.854Z,3164.16
2022-08-20T06:14:28.008Z,3202.56
2022-08-20T06:15:28.110Z,3271.68
2022-08-20T06:16:28.993Z,3384.32
2022-08-20T06:17:28.314Z,3471.36
2022-08-20T06:18:28.906Z,3463.68
2022-08-20T06:19:32.209Z,2995.2
2022-08-20T06:20:28.672Z,2504.96
2022-08-20T06:21:28.771Z,2364.16
2022-08-20T06:22:28.921Z,2997.76
2022-08-20T06:23:40.226Z,3607.04
2022-08-20T06:24:29.131Z,3340.8
2022-08-20T06:25:29.279Z,4106.24
2022-08-20T06:26:30.127Z,4536.32
2022-08-20T06:27:29.482Z,4595.2
2022-08-20T06:28:29.595Z,4636.16
2022-08-20T06:29:29.689Z,4559.36
2022-08-20T06:30:29.838Z,4331.52
2022-08-20T06:31:29.945Z,4167.68
2022-08-20T06:32:32.335Z,4124.16
2022-08-20T06:33:30.239Z,4308.48
2022-08-20T06:34:30.868Z,5186.56
2022-08-20T06:35:30.446Z,5852.16
2022-08-20T06:36:30.554Z,5314.56
2022-08-20T06:37:30.894Z,4874.24
2022-08-20T06:38:30.802Z,4323.84
2022-08-20T06:39:31.149Z,3200
2022-08-20T06:40:31.060Z,3064.32
2022-08-20T06:41:35.909Z,3663.36
2022-08-20T06:42:31.367Z,4490.24
2022-08-20T06:43:31.462Z,6696.96
2022-08-20T06:44:31.567Z,9072.64
2022-08-20T06:45:31.682Z,10557.439
2022-08-20T06:46:31.770Z,11919.359
2022-08-20T06:47:31.920Z,11868.16
2022-08-20T06:48:32.071Z,11632.64
2022-08-20T06:49:34.240Z,9943.04
2022-08-20T06:50:32.335Z,8673.28
2022-08-20T06:51:32.425Z,7449.6
2022-08-20T06:52:51.811Z,5463.04
2022-08-20T06:53:32.679Z,4692.48
2022-08-20T06:54:32.834Z,3760.64
2022-08-20T06:55:32.947Z,3064.32
2022-08-20T06:56:33.091Z,2839.04
2022-08-20T06:57:33.198Z,2782.72
2022-08-20T06:58:36.661Z,3174.4
2022-08-20T06:59:33.443Z,4131.84
2022-08-20T07:00:33.613Z,4915.2
2022-08-20T07:01:33.819Z,6195.2
2022-08-20T07:02:33.897Z,7429.12
2022-08-20T07:03:34.001Z,7552
2022-08-20T07:04:34.104Z,7644.16
2022-08-20T07:05:34.262Z,7234.56
2022-08-20T07:06:34.362Z,6538.24
2022-08-20T07:07:34.513Z,6307.84
2022-08-20T07:08:34.614Z,6732.8
2022-08-20T07:09:34.717Z,6727.68
2022-08-20T07:10:34.862Z,6108.16
2022-08-20T07:11:34.971Z,5657.6
2022-08-20T07:12:35.071Z,5734.4
2022-08-20T07:13:35.168Z,6277.12
2022-08-20T07:14:35.272Z,6696.96
2022-08-20T07:15:35.376Z,7285.76
2022-08-20T07:16:35.474Z,7726.08
2022-08-20T07:17:35.580Z,8739.84
2022-08-20T07:18:35.745Z,9825.279
2022-08-20T07:19:35.833Z,10629.12
2022-08-20T07:20:35.941Z,11202.56
2022-08-20T07:21:36.036Z,11704.319
2022-08-20T07:22:36.190Z,12113.92
2022-08-20T07:23:36.340Z,12380.16
2022-08-20T07:24:40.488Z,12482.56
2022-08-20T07:25:36.595Z,12369.92
2022-08-20T07:26:36.692Z,12195.84
2022-08-20T07:27:36.795Z,11837.439
2022-08-20T07:28:36.897Z,11755.52
2022-08-20T07:29:37.072Z,11755.52
2022-08-20T07:30:56.354Z,11683.84
2022-08-20T07:31:37.408Z,11673.6
2022-08-20T07:32:39.551Z,11765.76
2022-08-20T07:33:37.608Z,12001.279
2022-08-20T07:34:37.718Z,12308.479
2022-08-20T07:35:37.868Z,12646.399
2022-08-20T07:36:38.018Z,12881.92
2022-08-20T07:37:38.124Z,12861.439
2022-08-20T07:38:38.219Z,12718.08
2022-08-20T07:39:38.417Z,12462.08
2022-08-20T07:40:38.472Z,12359.68
2022-08-20T07:41:38.607Z,12544
2022-08-20T07:42:38.780Z,12933.12
2022-08-20T07:43:38.876Z,14725.12
2022-08-20T07:44:39.027Z,15636.479
2022-08-20T07:45:39.127Z,16199.68
2022-08-20T07:46:39.232Z,16404.48
2022-08-20T07:47:39.388Z,16168.96
2022-08-20T07:48:39.487Z,15554.56
2022-08-20T07:49:39.593Z,14745.6
2022-08-20T07:50:39.691Z,14407.68
2022-08-20T07:51:39.793Z,14428.16
2022-08-20T07:52:39.895Z,14602.239
2022-08-20T07:53:40.054Z,14407.68
2022-08-20T07:54:40.151Z,14499.84
2022-08-20T07:55:40.304Z,14940.159
2022-08-20T07:56:40.440Z,15400.96
2022-08-20T07:57:40.586Z,15728.64
2022-08-20T07:58:40.658Z,15933.439
2022-08-20T07:59:40.758Z,16076.8
2022-08-20T08:00:40.894Z,16302.08
2022-08-20T08:01:41.032Z,16476.16
2022-08-20T08:02:41.167Z,16640
2022-08-20T08:03:49.061Z,16732.16
2022-08-20T08:04:41.422Z,16855.04
2022-08-20T08:05:41.567Z,16998.4
2022-08-20T08:06:41.723Z,17254.4
2022-08-20T08:07:42.283Z,17305.6
2022-08-20T08:08:41.935Z,17397.76
2022-08-20T08:09:42.041Z,17448.96
2022-08-20T08:10:42.179Z,17469.44
2022-08-20T08:11:46.617Z,17408
2022-08-20T08:12:42.435Z,17428.48
2022-08-20T08:13:42.589Z,17418.24
2022-08-20T08:14:42.750Z,17264.64
2022-08-20T08:15:43.094Z,17039.36
2022-08-20T08:16:42.993Z,16896
2022-08-20T08:17:43.096Z,16896
2022-08-20T08:18:43.194Z,17029.12
2022-08-20T08:19:43.300Z,17264.64
2022-08-20T08:20:46.831Z,17633.28
2022-08-20T08:21:43.577Z,17971.2
2022-08-20T08:22:43.707Z,18247.68
2022-08-20T08:23:43.829Z,18472.96
2022-08-20T08:24:56.953Z,18585.6
2022-08-20T08:25:44.106Z,18647.04
2022-08-20T08:26:44.214Z,18616.32
2022-08-20T08:27:44.315Z,18708.48
2022-08-20T08:28:44.414Z,19025.92
2022-08-20T08:29:44.565Z,19568.64
2022-08-20T08:30:44.718Z,20234.24
2022-08-20T08:31:44.822Z,20715.52
2022-08-20T08:32:44.976Z,20654.08
2022-08-20T08:33:45.075Z,20695.04
2022-08-20T08:34:45.224Z,20695.04
2022-08-20T08:35:45.334Z,20572.16
2022-08-20T08:36:45.480Z,20541.44
2022-08-20T08:37:45.636Z,20695.04
2022-08-20T08:38:45.732Z,21258.24
2022-08-20T08:39:45.914Z,22343.68
2022-08-20T08:40:46.038Z,23695.36
2022-08-20T08:41:46.189Z,25559.04
2022-08-20T08:42:46.294Z,27648
2022-08-20T08:43:46.394Z,29511.68
2022-08-20T08:44:46.500Z,31191.04
2022-08-20T08:45:46.644Z,32460.8
2022-08-20T08:46:46.801Z,34058.24
2022-08-20T08:47:46.953Z,33976.32
2022-08-20T08:48:47.056Z,33382.4
2022-08-20T08:49:47.204Z,33198.08
2022-08-20T08:50:53.758Z,33054.72
2022-08-20T08:51:47.408Z,32870.4
2022-08-20T08:52:47.517Z,32317.44
2022-08-20T08:53:47.664Z,31744
2022-08-20T08:54:47.770Z,30597.12
2022-08-20T08:55:47.872Z,29265.92
2022-08-20T08:56:49.630Z,28610.56
2022-08-20T08:57:48.117Z,27668.48
2022-08-20T08:58:48.224Z,27340.8
2022-08-20T08:59:52.085Z,27013.12
2022-08-20T09:00:52.706Z,26112
2022-08-20T09:01:53.552Z,24227.84
2022-08-20T09:02:48.740Z,21667.84
2022-08-20T09:03:48.836Z,21278.72
2022-08-20T09:04:48.935Z,21360.64
2022-08-20T09:05:49.037Z,23756.8
2022-08-20T09:06:52.128Z,26726.4
2022-08-20T09:07:49.291Z,27197.44
2022-08-20T09:08:49.393Z,26091.52
2022-08-20T09:09:49.499Z,21463.04
2022-08-20T09:10:49.649Z,20039.68
2022-08-20T09:11:49.746Z,21319.68
2022-08-20T09:12:49.900Z,23060.48
2022-08-20T09:13:50.003Z,23654.4
2022-08-20T09:14:50.153Z,22999.04
2022-08-20T09:15:50.290Z,22282.24
2022-08-20T09:16:52.543Z,22343.68
2022-08-20T09:17:50.570Z,24289.28
2022-08-20T09:18:50.616Z,27320.32
2022-08-20T09:19:50.713Z,28569.6
2022-08-20T09:20:50.817Z,28344.32
2022-08-20T09:21:50.980Z,28651.52
2022-08-20T09:22:51.123Z,28262.4
2022-08-20T09:23:51.223Z,27279.36
2022-08-20T09:24:51.321Z,28712.96
2022-08-20T09:25:51.430Z,28856.32
2022-08-20T09:26:51.524Z,27586.56
2022-08-20T09:27:51.625Z,26972.16
2022-08-20T09:28:52.214Z,27934.72
2022-08-20T09:29:51.885Z,27914.24
2022-08-20T09:30:51.989Z,26296.32
2022-08-20T09:31:52.086Z,24883.2
2022-08-20T09:32:52.195Z,22896.64
2022-08-20T09:33:52.340Z,21893.12
2022-08-20T09:34:52.650Z,22814.72
2022-08-20T09:35:52.543Z,21544.96
2022-08-20T09:36:52.646Z,19752.96
2022-08-20T09:37:52.803Z,20531.2
2022-08-20T09:38:52.907Z,21811.2
2022-08-20T09:39:53.086Z,21340.16
2022-08-20T09:40:53.350Z,22487.04
2022-08-20T09:41:53.255Z,25026.56
2022-08-20T09:42:53.489Z,25374.72
2022-08-20T09:43:53.506Z,23777.28
2022-08-20T09:44:53.609Z,23470.08
2022-08-20T09:45:53.762Z,23859.2
2022-08-20T09:46:53.863Z,21585.92
2022-08-20T09:47:55.329Z,16312.319
2022-08-20T09:48:54.067Z,12236.8
2022-08-20T09:49:54.171Z,10557.439
2022-08-20T09:50:54.274Z,11151.359
2022-08-20T09:51:54.422Z,12953.6
2022-08-20T09:52:54.529Z,16209.92
2022-08-20T09:53:54.628Z,17172.48
2022-08-20T09:54:54.733Z,17100.8
2022-08-20T09:55:54.839Z,16875.52
2022-08-20T09:56:54.980Z,15616
2022-08-20T09:57:55.147Z,14929.92
2022-08-20T09:58:55.201Z,14039.04
2022-08-20T09:59:55.342Z,13455.359
2022-08-20T10:00:55.444Z,13230.08
2022-08-20T10:01:55.703Z,12830.72
2022-08-20T10:02:55.695Z,11632.64
2022-08-20T10:03:56.043Z,12124.16
2022-08-20T10:04:56.143Z,13137.92
2022-08-20T10:05:55.999Z,15288.319
2022-08-20T10:06:56.107Z,15728.64
2022-08-20T10:07:56.423Z,15011.84
2022-08-20T10:08:56.403Z,14581.76
2022-08-20T10:09:56.509Z,14407.68
2022-08-20T10:10:56.660Z,14888.96
2022-08-20T10:11:56.763Z,14848
2022-08-20T10:12:56.917Z,13793.279
2022-08-20T10:13:57.018Z,14213.12
2022-08-20T10:14:57.170Z,15134.72
2022-08-20T10:15:57.319Z,16117.76
2022-08-20T10:16:59.248Z,16179.199
2022-08-20T10:17:57.734Z,15493.12
2022-08-20T10:18:57.681Z,15093.76
2022-08-20T10:19:57.835Z,15298.56
2022-08-20T10:20:57.931Z,15810.56
2022-08-20T10:21:58.028Z,16896
2022-08-20T10:22:58.133Z,17858.56
2022-08-20T10:23:58.289Z,17817.6
2022-08-20T10:24:58.436Z,16670.72
2022-08-20T10:25:58.537Z,15831.04
2022-08-20T10:26:58.691Z,15319.04
2022-08-20T10:27:58.835Z,15083.52
2022-08-20T10:28:58.897Z,14735.359
2022-08-20T10:29:58.995Z,14561.279
2022-08-20T10:30:59.107Z,14387.199
2022-08-20T10:31:59.261Z,14120.96
2022-08-20T10:32:59.355Z,13875.199
2022-08-20T10:33:59.457Z,14407.68
2022-08-20T10:34:59.608Z,15104
2022-08-20T10:36:00.115Z,15790.08
2022-08-20T10:36:59.808Z,16424.96
2022-08-20T10:37:59.911Z,16906.24
2022-08-20T10:39:00.017Z,17100.8
2022-08-20T10:40:00.272Z,16998.4
2022-08-20T10:41:00.266Z,17285.12
2022-08-20T10:42:00.370Z,17920
2022-08-20T10:43:00.472Z,18565.12
2022-08-20T10:44:00.569Z,19046.4
2022-08-20T10:45:00.725Z,19701.76
2022-08-20T10:46:00.874Z,20377.6
2022-08-20T10:47:00.976Z,20879.36
2022-08-20T10:48:01.082Z,21299.2
2022-08-20T10:49:01.182Z,21647.36
2022-08-20T10:50:01.283Z,21606.4
2022-08-20T10:51:01.639Z,21422.08
2022-08-20T10:52:01.485Z,21155.84
2022-08-20T10:53:01.592Z,20899.84
2022-08-20T10:54:01.746Z,20664.32
2022-08-20T10:55:01.844Z,20316.16
2022-08-20T10:56:02.187Z,19814.4
2022-08-20T10:57:02.048Z,19435.52
2022-08-20T10:58:02.197Z,19077.12
2022-08-20T10:59:02.304Z,18513.92
2022-08-20T11:00:02.839Z,17715.2
2022-08-20T11:01:02.605Z,17100.8
2022-08-20T11:02:02.785Z,16762.88
2022-08-20T11:03:02.911Z,16619.52
2022-08-20T11:04:03.014Z,16742.4
2022-08-20T11:05:03.118Z,17459.2
2022-08-20T11:06:03.264Z,18708.48
2022-08-20T11:07:03.371Z,20797.44
2022-08-20T11:08:03.644Z,22364.16
2022-08-20T11:09:03.567Z,23040
2022-08-20T11:10:03.926Z,23449.6
2022-08-20T11:11:03.823Z,23777.28
2022-08-20T11:12:03.933Z,23838.72
2022-08-20T11:13:04.080Z,23449.6
2022-08-20T11:14:04.179Z,22323.2
2022-08-20T11:15:04.340Z,21934.08
2022-08-20T11:16:04.436Z,22118.4
2022-08-20T11:17:04.586Z,23511.04
2022-08-20T11:18:04.739Z,24903.68
2022-08-20T11:19:04.843Z,26419.2
2022-08-20T11:20:04.993Z,27504.64
2022-08-20T11:21:05.098Z,27381.76
2022-08-20T11:22:05.247Z,26480.64
2022-08-20T11:23:05.396Z,26152.96
2022-08-20T11:24:05.502Z,27095.04
2022-08-20T11:25:05.599Z,28385.28
2022-08-20T11:26:05.750Z,29593.6
2022-08-20T11:27:05.902Z,30576.64
2022-08-20T11:28:06.005Z,31211.52
2022-08-20T11:29:06.115Z,31518.72
2022-08-20T11:30:06.260Z,31764.48
2022-08-20T11:31:06.360Z,31641.6
2022-08-20T11:32:06.514Z,30699.52
2022-08-20T11:33:06.667Z,29573.12
2022-08-20T11:34:10.703Z,28794.88
2022-08-20T11:35:24.873Z,28344.32
2022-08-20T11:36:07.023Z,27361.28
2022-08-20T11:37:07.128Z,26234.88
2022-08-20T11:38:07.334Z,25026.56
2022-08-20T11:39:07.428Z,23613.44
2022-08-20T11:40:07.590Z,22343.68
2022-08-20T11:41:07.683Z,21770.24
2022-08-20T11:42:07.832Z,21852.16
2022-08-20T11:43:14.477Z,22261.76
2022-08-20T11:44:20.040Z,23019.52
2022-08-20T11:45:08.188Z,23429.12
2022-08-20T11:46:08.342Z,23347.2
2022-08-20T11:47:08.444Z,22937.6
2022-08-20T11:48:08.549Z,21729.28
2022-08-20T11:49:08.645Z,21237.76
2022-08-20T11:50:08.795Z,22016
2022-08-20T11:51:08.952Z,22732.8
2022-08-20T11:52:09.106Z,22876.16
2022-08-20T11:53:09.258Z,23183.36
2022-08-20T11:54:09.356Z,23695.36
2022-08-20T11:55:09.458Z,23367.68
2022-08-20T11:56:09.612Z,22405.12
2022-08-20T11:57:09.764Z,21872.64
2022-08-20T11:58:09.866Z,21217.28
2022-08-20T11:59:09.974Z,20336.64
2022-08-20T12:00:10.067Z,19312.64
2022-08-20T12:01:10.226Z,17868.8
2022-08-20T12:02:12.423Z,16578.56
2022-08-20T12:03:11.799Z,16158.72
2022-08-20T12:04:10.625Z,16660.48
2022-08-20T12:05:10.778Z,17049.6
2022-08-20T12:06:10.882Z,16803.84
2022-08-20T12:07:11.042Z,16353.279
2022-08-20T12:08:25.040Z,16076.8
2022-08-20T12:09:11.287Z,15820.8
2022-08-20T12:10:11.390Z,15708.159
2022-08-20T12:11:11.505Z,15697.92
2022-08-20T12:12:11.595Z,15677.439
2022-08-20T12:13:11.698Z,15667.199
2022-08-20T12:14:11.792Z,15616
2022-08-20T12:15:11.951Z,15503.359
2022-08-20T12:16:12.049Z,15380.479
2022-08-20T12:17:12.255Z,15124.479
2022-08-20T12:18:12.409Z,14888.96
2022-08-20T12:19:12.507Z,14612.479
2022-08-20T12:20:12.640Z,14397.439
2022-08-20T12:21:12.766Z,14295.04
2022-08-20T12:22:21.300Z,14274.56
2022-08-20T12:23:12.960Z,14336
2022-08-20T12:24:13.069Z,14387.199
2022-08-20T12:25:13.168Z,14458.88
2022-08-20T12:26:13.318Z,14458.88
2022-08-20T12:27:13.422Z,14530.56
2022-08-20T12:28:13.567Z,14592